Time;durP1;ratioP1;P1;durP2;ratioP2;P2;SDS_P1;SDS_P2;PMS_P1;PMS_P2;Temp;Humidity;BMP_temperature;BMP_pressure;BME280_temperature;BME280_humidity;BME280_pressure;Samples;Min_cycle;Max_cycle;Signal;HPM_P1;HPM_P2
2022/08/16 00:01:24;;;;;;;3.92;1.42;;;23.30;96.70;;;;;;4962079;28;20156;-83
2022/08/16 00:04:00;;;;;;;4.32;1.15;;;23.30;96.70;;;;;;4963670;28;20046;-85
2022/08/16 00:06:32;;;;;;;3.53;1.20;;;23.30;96.70;;;;;;4962407;28;20065;-84
2022/08/16 00:09:05;;;;;;;3.10;1.30;;;23.20;96.70;;;;;;4955414;28;20047;-83
2022/08/16 00:11:33;;;;;;;3.22;1.08;;;23.20;96.70;;;;;;4967412;28;20041;-84
2022/08/16 00:14:03;;;;;;;3.22;1.08;;;23.30;96.70;;;;;;4960240;28;20046;-85
2022/08/16 00:16:35;;;;;;;5.18;1.60;;;23.30;96.70;;;;;;4965260;28;20109;-85
2022/08/16 00:19:27;;;;;;;5.05;1.52;;;23.30;96.70;;;;;;4951551;28;20079;-83
2022/08/16 00:22:09;;;;;;;3.60;1.33;;;23.40;96.70;;;;;;4957085;28;20047;-84
2022/08/16 00:24:44;;;;;;;3.90;1.05;;;23.50;96.70;;;;;;4962451;28;20672;-85
2022/08/16 00:27:13;;;;;;;3.13;1.42;;;23.50;96.70;;;;;;4941229;28;20149;-83
2022/08/16 00:29:44;;;;;;;4.95;1.40;;;23.50;96.70;;;;;;4969188;28;20074;-85
2022/08/16 00:32:13;;;;;;;2.78;1.20;;;23.50;96.70;;;;;;4969584;28;20493;-85
2022/08/16 00:34:45;;;;;;;5.28;1.48;;;23.50;96.70;;;;;;4952704;28;20125;-84
2022/08/16 00:37:22;;;;;;;3.00;1.20;;;23.60;96.70;;;;;;4952639;28;20110;-85
2022/08/16 00:39:53;;;;;;;3.78;1.42;;;23.70;96.70;;;;;;4953599;28;20106;-84
2022/08/16 00:42:27;;;;;;;2.78;1.25;;;23.60;96.70;;;;;;4968835;28;20054;-85
2022/08/16 00:45:06;;;;;;;2.80;1.35;;;23.50;96.70;;;;;;4966087;28;20043;-85
2022/08/16 00:47:42;;;;;;;3.17;1.50;;;23.50;96.70;;;;;;4938750;28;20531;-84
2022/08/16 00:50:19;;;;;;;3.67;1.58;;;23.40;96.70;;;;;;4954795;28;20051;-83
2022/08/16 00:52:47;;;;;;;4.95;1.63;;;23.40;96.70;;;;;;4961180;28;20043;-85
2022/08/16 00:55:23;;;;;;;3.83;1.48;;;23.30;96.70;;;;;;4967396;28;20501;-84
2022/08/16 00:57:55;;;;;;;5.03;1.58;;;23.30;96.70;;;;;;4953497;28;20712;-84
2022/08/16 01:00:27;;;;;;;1.70;1.05;;;23.40;96.70;;;;;;4953079;28;20054;-84
2022/08/16 01:02:57;;;;;;;2.55;1.20;;;23.30;96.70;;;;;;4942588;28;20062;-85
2022/08/16 01:05:26;;;;;;;3.67;1.48;;;23.20;96.70;;;;;;4953136;28;20046;-84
2022/08/16 01:07:56;;;;;;;4.85;1.77;;;23.00;96.70;;;;;;4967455;28;20050;-85
2022/08/16 01:10:30;;;;;;;2.72;1.67;;;23.20;96.70;;;;;;4953063;28;20591;-85
2022/08/16 01:13:05;;;;;;;3.13;1.27;;;23.30;96.70;;;;;;4959102;28;20062;-85
2022/08/16 01:15:36;;;;;;;4.10;1.60;;;23.30;96.70;;;;;;4963479;28;20098;-85
2022/08/16 01:18:16;;;;;;;2.60;1.85;;;23.10;96.70;;;;;;4936904;28;20504;-85
2022/08/16 01:21:15;;;;;;;2.20;1.33;;;23.20;96.70;;;;;;4950358;28;20043;-85
2022/08/16 01:24:12;;;;;;;6.47;1.67;;;23.30;96.70;;;;;;4964193;28;20121;-86
2022/08/16 01:27:06;;;;;;;6.28;1.70;;;23.40;96.70;;;;;;4960570;28;20063;-85
2022/08/16 01:29:40;;;;;;;4.80;1.45;;;23.20;96.70;;;;;;4965026;28;20200;-84
2022/08/16 01:32:28;;;;;;;2.92;1.30;;;23.00;96.70;;;;;;4961861;28;20039;-85
2022/08/16 01:35:06;;;;;;;2.70;1.38;;;22.80;96.70;;;;;;4964936;28;20144;-84
2022/08/16 01:37:45;;;;;;;4.28;1.50;;;23.00;96.70;;;;;;4967333;28;20043;-85
2022/08/16 01:40:28;;;;;;;3.10;1.70;;;22.90;96.70;;;;;;4965453;28;20114;-84
2022/08/16 01:42:57;;;;;;;4.97;1.40;;;22.70;96.70;;;;;;4941928;29;20102;-84
2022/08/16 01:45:25;;;;;;;3.53;1.38;;;22.80;96.70;;;;;;4948712;28;20149;-84
2022/08/16 01:48:07;;;;;;;5.07;1.90;;;22.80;96.70;;;;;;4953959;28;20889;-85
2022/08/16 01:50:51;;;;;;;4.88;1.30;;;22.90;96.70;;;;;;4969774;28;20038;-84
2022/08/16 01:53:40;;;;;;;4.68;1.70;;;23.00;96.70;;;;;;4966856;28;20066;-83
2022/08/16 01:56:39;;;;;;;5.00;1.88;;;23.10;96.70;;;;;;4929404;29;20070;-84
2022/08/16 01:59:11;;;;;;;4.43;1.75;;;23.10;96.70;;;;;;4930962;29;20058;-85
2022/08/16 02:01:45;;;;;;;4.15;1.80;;;23.10;96.70;;;;;;4923811;29;20099;-85
2022/08/16 02:04:17;;;;;;;3.67;1.63;;;23.20;96.70;;;;;;4913736;29;20048;-85
2022/08/16 02:07:08;;;;;;;5.05;1.67;;;23.10;96.70;;;;;;4925096;29;20056;-84
2022/08/16 02:09:39;;;;;;;5.97;1.63;;;23.10;96.70;;;;;;4895667;29;20059;-85
2022/08/16 02:12:11;;;;;;;2.63;1.40;;;23.00;96.70;;;;;;4917356;29;20054;-84
2022/08/16 02:15:00;;;;;;;5.05;1.50;;;23.00;96.70;;;;;;4911925;29;20043;-85
2022/08/16 02:17:28;;;;;;;4.95;1.20;;;23.10;96.70;;;;;;4887760;29;20056;-84
2022/08/16 02:19:56;;;;;;;4.57;1.70;;;23.10;96.70;;;;;;4918801;29;20124;-83
2022/08/16 02:22:27;;;;;;;3.70;1.50;;;23.10;96.70;;;;;;4904969;29;20596;-84
2022/08/16 02:25:06;;;;;;;5.47;1.65;;;23.10;96.70;;;;;;4908879;29;20051;-83
2022/08/16 02:27:40;;;;;;;5.05;1.52;;;23.10;96.70;;;;;;4910272;29;20529;-85
2022/08/16 02:30:13;;;;;;;3.10;1.60;;;23.10;96.70;;;;;;4910425;29;20533;-85
2022/08/16 02:33:01;;;;;;;3.10;1.30;;;23.10;96.70;;;;;;4929444;28;20057;-85
2022/08/16 02:35:31;;;;;;;2.85;1.48;;;23.10;96.70;;;;;;4951773;28;20493;-86
2022/08/16 02:37:59;;;;;;;4.78;2.00;;;23.10;96.70;;;;;;4949437;28;20082;-85
2022/08/16 02:40:35;;;;;;;4.55;1.60;;;23.00;96.70;;;;;;4958434;28;20051;-85
2022/08/16 02:43:06;;;;;;;4.35;1.40;;;23.00;96.70;;;;;;4965280;28;20035;-85
2022/08/16 02:45:35;;;;;;;3.42;1.65;;;23.00;96.70;;;;;;4959638;28;20054;-86
2022/08/16 02:48:04;;;;;;;4.80;1.70;;;22.90;96.70;;;;;;4948344;28;20521;-85
2022/08/16 02:50:52;;;;;;;4.30;1.70;;;22.80;96.70;;;;;;4962182;28;20049;-84
2022/08/16 02:53:41;;;;;;;5.05;1.50;;;22.70;96.70;;;;;;4955409;28;20047;-85
2022/08/16 02:56:11;;;;;;;6.38;1.70;;;22.80;96.70;;;;;;4946581;28;20070;-86
2022/08/16 02:58:44;;;;;;;5.93;1.90;;;22.80;96.70;;;;;;4988239;28;20051;-84
2022/08/16 03:01:15;;;;;;;3.83;1.55;;;22.90;96.70;;;;;;4967709;28;20078;-84
2022/08/16 03:04:10;;;;;;;3.78;1.90;;;22.80;96.70;;;;;;4948675;28;20543;-84
2022/08/16 03:06:58;;;;;;;6.22;2.15;;;22.90;96.70;;;;;;4970715;28;20106;-84
2022/08/16 03:09:47;;;;;;;2.70;1.83;;;22.80;96.70;;;;;;4965194;28;20046;-86
2022/08/16 03:12:21;;;;;;;5.57;2.38;;;22.80;96.70;;;;;;4967321;28;20138;-85
2022/08/16 03:14:58;;;;;;;;;;;22.80;96.70;;;;;;4960838;28;20055;-86
2022/08/16 03:17:26;;;;;;;3.05;1.92;;;22.80;96.70;;;;;;4974209;28;19977;-86
2022/08/16 03:20:03;;;;;;;5.63;2.20;;;22.80;96.70;;;;;;4970208;28;20130;-86
2022/08/16 03:22:36;;;;;;;7.72;2.55;;;22.80;96.70;;;;;;4965976;28;20074;-85
2022/08/16 03:25:13;;;;;;;4.70;2.25;;;22.80;96.70;;;;;;4959053;28;20130;-84
2022/08/16 03:27:51;;;;;;;4.30;2.50;;;22.90;96.70;;;;;;4969359;28;20035;-85
2022/08/16 03:30:26;;;;;;;4.40;2.40;;;23.00;96.70;;;;;;4964676;28;20112;-86
2022/08/16 03:32:58;;;;;;;5.47;2.67;;;22.80;96.70;;;;;;4962653;28;20042;-86
2022/08/16 03:35:32;;;;;;;4.70;2.45;;;22.70;96.70;;;;;;4940068;29;20047;-84
2022/08/16 03:38:26;;;;;;;5.00;2.65;;;22.80;96.70;;;;;;4961724;28;20058;-85
2022/08/16 03:41:05;;;;;;;5.60;2.33;;;22.80;96.70;;;;;;4949412;28;20055;-86
2022/08/16 03:43:53;;;;;;;7.63;2.25;;;22.70;96.70;;;;;;4967189;28;20098;-84
2022/08/16 03:46:24;;;;;;;6.60;2.55;;;22.70;96.70;;;;;;4955624;28;20055;-85
2022/08/16 03:49:14;;;;;;;4.60;2.40;;;22.60;96.70;;;;;;4957467;28;20050;-87
2022/08/16 03:51:45;;;;;;;5.95;2.63;;;22.60;96.70;;;;;;4954245;28;20121;-86
2022/08/16 03:54:20;;;;;;;7.72;2.90;;;22.70;96.70;;;;;;4945635;28;20050;-85
2022/08/16 03:56:52;;;;;;;5.63;2.70;;;22.60;96.70;;;;;;4955019;28;20513;-86
2022/08/16 03:59:27;;;;;;;4.40;2.43;;;22.60;96.70;;;;;;4970821;28;20038;-87
2022/08/16 04:01:59;;;;;;;7.25;2.60;;;22.60;96.70;;;;;;4965091;28;20051;-86
2022/08/16 04:04:30;;;;;;;5.88;2.90;;;22.70;96.70;;;;;;4960997;28;20051;-86
2022/08/16 04:07:05;;;;;;;5.95;2.60;;;22.60;96.70;;;;;;4958917;28;20078;-86
2022/08/16 04:09:38;;;;;;;4.90;2.35;;;22.60;96.70;;;;;;4951840;28;20086;-86
2022/08/16 04:12:10;;;;;;;5.47;2.80;;;22.50;96.70;;;;;;4957081;28;20112;-85
2022/08/16 04:15:00;;;;;;;4.40;2.50;;;22.50;96.70;;;;;;4969929;28;20129;-83
2022/08/16 04:17:34;;;;;;;5.63;2.50;;;22.60;96.70;;;;;;4953569;28;20062;-86
2022/08/16 04:20:07;;;;;;;3.63;2.35;;;22.50;96.70;;;;;;4962951;28;20051;-85
2022/08/16 04:22:56;;;;;;;3.25;2.00;;;22.40;96.70;;;;;;4959087;28;20050;-86
2022/08/16 04:25:27;;;;;;;4.57;2.55;;;22.40;96.70;;;;;;4962605;28;20595;-86
2022/08/16 04:27:55;;;;;;;4.00;1.92;;;22.40;96.70;;;;;;4967720;28;20043;-85
2022/08/16 04:30:44;;;;;;;3.90;2.40;;;22.50;96.70;;;;;;4956447;28;20042;-86
2022/08/16 04:33:18;;;;;;;6.03;2.45;;;22.60;96.70;;;;;;4966475;28;20055;-85
2022/08/16 04:35:57;;;;;;;3.67;2.10;;;22.60;96.70;;;;;;4955780;28;20073;-85
2022/08/16 04:38:27;;;;;;;3.95;2.50;;;22.50;96.70;;;;;;4960746;28;20114;-85
2022/08/16 04:40:59;;;;;;;5.35;2.22;;;22.50;96.70;;;;;;4947530;28;20137;-86
2022/08/16 04:43:29;;;;;;;4.53;1.98;;;22.40;96.70;;;;;;4962271;28;20106;-86
2022/08/16 04:46:00;;;;;;;4.93;2.67;;;22.40;96.70;;;;;;4959861;28;20043;-85
2022/08/16 04:48:37;;;;;;;8.02;2.50;;;22.40;96.70;;;;;;4951599;28;20047;-87
2022/08/16 04:51:11;;;;;;;8.27;2.55;;;22.40;96.70;;;;;;4949130;29;20051;-85
2022/08/16 04:53:47;;;;;;;;;;;22.40;96.70;;;;;;4949591;28;20093;-86
2022/08/16 04:56:18;;;;;;;6.05;1.73;;;22.40;96.70;;;;;;4958076;28;19926;-86
2022/08/16 04:58:48;;;;;;;6.53;1.63;;;22.40;96.70;;;;;;4961845;28;20073;-84
2022/08/16 05:01:19;;;;;;;4.40;2.08;;;22.50;96.70;;;;;;4953120;28;20050;-87
2022/08/16 05:03:49;;;;;;;4.07;1.80;;;22.50;96.70;;;;;;4968649;28;20050;-86
2022/08/16 05:06:32;;;;;;;2.42;1.65;;;22.40;96.70;;;;;;4966040;28;20515;-86
2022/08/16 05:09:19;;;;;;;;;;;22.50;96.70;;;;;;4966890;28;20149;-87
2022/08/16 05:11:52;;;;;;;3.40;1.85;;;22.50;96.70;;;;;;4959378;28;20016;-84
2022/08/16 05:14:28;;;;;;;4.57;2.05;;;22.50;96.70;;;;;;4966208;28;20053;-84
2022/08/16 05:17:20;;;;;;;4.90;2.00;;;22.50;96.70;;;;;;4963983;28;20051;-85
2022/08/16 05:19:57;;;;;;;5.55;2.33;;;22.50;96.70;;;;;;4949184;28;20043;-87
2022/08/16 05:22:35;;;;;;;4.00;2.38;;;22.40;96.70;;;;;;4952621;28;20051;-84
2022/08/16 05:25:06;;;;;;;5.40;1.90;;;22.50;96.70;;;;;;4965615;28;20833;-86
2022/08/16 05:27:42;;;;;;;4.55;1.92;;;22.50;96.70;;;;;;4961713;28;20050;-87
2022/08/16 05:30:14;;;;;;;4.72;2.35;;;22.60;96.70;;;;;;4967527;28;20054;-84
2022/08/16 05:33:07;;;;;;;4.63;2.10;;;22.60;96.70;;;;;;4958860;28;20567;-86
2022/08/16 05:35:48;;;;;;;3.85;2.42;;;22.70;96.70;;;;;;4961282;28;20106;-85
2022/08/16 05:38:51;;;;;;;4.97;2.15;;;22.70;96.70;;;;;;4951923;28;20061;-86
2022/08/16 05:41:20;;;;;;;4.88;1.80;;;22.80;96.70;;;;;;4932403;29;20625;-89
2022/08/16 05:43:49;;;;;;;7.43;2.50;;;22.90;96.70;;;;;;4945259;28;20091;-86
2022/08/16 05:46:35;;;;;;;3.38;1.80;;;22.80;96.70;;;;;;4925515;29;20699;-82
2022/08/16 05:49:17;;;;;;;7.63;2.60;;;22.80;96.70;;;;;;4933433;29;20039;-87
2022/08/16 05:51:54;;;;;;;7.33;2.27;;;22.90;96.70;;;;;;4946294;28;20691;-79
2022/08/16 05:54:23;;;;;;;5.88;2.08;;;23.00;96.70;;;;;;4930481;29;20308;-84
2022/08/16 05:56:58;;;;;;;5.82;2.17;;;22.90;96.70;;;;;;4929844;29;20054;-76
2022/08/16 05:59:28;;;;;;;4.57;2.63;;;22.90;96.70;;;;;;4922345;29;20078;-77
2022/08/16 06:01:57;;;;;;;5.55;1.92;;;23.00;96.70;;;;;;4911107;29;20329;-83
2022/08/16 06:04:33;;;;;;;;;;;23.10;96.70;;;;;;4923077;28;20054;-80
2022/08/16 06:07:14;;;;;;;3.40;1.83;;;23.20;96.70;;;;;;4928904;29;20013;-80
2022/08/16 06:10:05;;;;;;;4.72;2.22;;;23.10;96.70;;;;;;4930012;28;20070;-77
2022/08/16 06:12:37;;;;;;;5.65;2.33;;;23.20;96.70;;;;;;4925530;29;20142;-77
2022/08/16 06:15:10;;;;;;;4.93;2.30;;;23.20;96.70;;;;;;4924853;28;20061;-77
2022/08/16 06:17:43;;;;;;;5.13;2.50;;;23.20;96.70;;;;;;4962924;28;20141;-76
2022/08/16 06:20:25;;;;;;;4.97;2.60;;;23.20;96.70;;;;;;4965365;28;20062;-76
2022/08/16 06:23:22;;;;;;;12.90;9.73;;;23.30;96.70;;;;;;4905427;29;20557;-76
2022/08/16 06:25:57;;;;;;;6.68;3.92;;;23.30;96.70;;;;;;4932828;29;20111;-79
2022/08/16 06:28:33;;;;;;;6.10;4.22;;;23.40;96.70;;;;;;4915078;29;20465;-78
2022/08/16 06:31:06;;;;;;;5.30;3.03;;;23.50;96.70;;;;;;4908757;29;20417;-78
2022/08/16 06:33:42;;;;;;;4.10;2.55;;;23.50;96.70;;;;;;4913117;29;20051;-77
2022/08/16 06:36:15;;;;;;;6.90;2.65;;;23.50;96.70;;;;;;4912280;29;20079;-80
2022/08/16 06:39:08;;;;;;;5.13;2.00;;;23.60;96.70;;;;;;4920837;29;20123;-78
2022/08/16 06:41:52;;;;;;;7.13;1.92;;;23.60;96.70;;;;;;4945885;28;20054;-80
2022/08/16 06:44:59;;;;;;;5.70;1.80;;;23.70;96.70;;;;;;4911552;29;20406;-79
2022/08/16 06:47:42;;;;;;;5.45;2.10;;;23.70;96.70;;;;;;4897618;29;20055;-81
2022/08/16 06:50:24;;;;;;;5.97;2.08;;;23.70;96.70;;;;;;4946960;28;20043;-80
2022/08/16 06:53:00;;;;;;;3.75;1.67;;;23.70;96.70;;;;;;4957132;28;20050;-80
2022/08/16 06:55:43;;;;;;;6.28;2.00;;;23.80;96.70;;;;;;4945617;28;20054;-80
2022/08/16 06:58:14;;;;;;;5.28;2.00;;;23.80;96.70;;;;;;4962304;28;20677;-81
2022/08/16 07:01:06;;;;;;;6.00;1.52;;;23.90;96.70;;;;;;4952922;28;20508;-82
2022/08/16 07:03:43;;;;;;;3.78;1.80;;;23.90;96.70;;;;;;4966564;28;21041;-80
2022/08/16 07:06:30;;;;;;;4.45;2.45;;;24.00;96.70;;;;;;4961586;28;20051;-81
2022/08/16 07:09:05;;;;;;;5.05;2.00;;;24.00;96.70;;;;;;4965884;28;20118;-81
2022/08/16 07:11:42;;;;;;;4.00;1.80;;;24.00;96.70;;;;;;4973094;28;20043;-78
2022/08/16 07:14:22;;;;;;;6.57;1.90;;;23.90;96.70;;;;;;4963432;28;20648;-77
2022/08/16 07:16:57;;;;;;;3.92;1.90;;;24.00;96.70;;;;;;4974794;28;20058;-77
2022/08/16 07:19:31;;;;;;;5.07;1.60;;;24.10;96.70;;;;;;4955820;28;20051;-78
2022/08/16 07:22:23;;;;;;;12.18;5.50;;;24.10;96.70;;;;;;4973691;28;20047;-77
2022/08/16 07:25:17;;;;;;;4.65;2.90;;;24.20;96.70;;;;;;4948293;28;20130;-77
2022/08/16 07:27:52;;;;;;;4.22;2.80;;;24.20;96.70;;;;;;4964379;28;20046;-77
2022/08/16 07:30:24;;;;;;;6.50;2.95;;;24.20;96.70;;;;;;4949223;28;20111;-77
2022/08/16 07:33:25;;;;;;;5.07;2.42;;;24.30;96.70;;;;;;4964921;28;20389;-78
2022/08/16 07:36:14;;;;;;;5.90;2.65;;;24.40;96.70;;;;;;4964306;28;20043;-78
2022/08/16 07:38:51;;;;;;;5.75;2.20;;;24.50;96.70;;;;;;4947794;28;20106;-78
2022/08/16 07:41:20;;;;;;;5.85;2.05;;;24.30;96.70;;;;;;4962300;28;20057;-76
2022/08/16 07:43:56;;;;;;;5.03;1.90;;;24.30;96.70;;;;;;4962463;28;20058;-77
2022/08/16 07:46:28;;;;;;;4.35;2.33;;;24.30;96.70;;;;;;4959136;28;20055;-76
2022/08/16 07:49:13;;;;;;;3.78;1.98;;;24.40;96.70;;;;;;4974413;28;20046;-76
2022/08/16 07:51:45;;;;;;;4.97;2.60;;;24.50;96.70;;;;;;4962587;28;20051;-77
2022/08/16 07:54:16;;;;;;;24.05;20.13;;;24.40;96.70;;;;;;4948407;28;20072;-77
2022/08/16 07:57:00;;;;;;;6.50;4.45;;;24.40;96.70;;;;;;4962145;28;20804;-79
2022/08/16 07:59:32;;;;;;;8.02;3.78;;;24.50;96.70;;;;;;4963819;28;20054;-81
2022/08/16 08:02:15;;;;;;;5.60;2.53;;;24.60;96.70;;;;;;4945612;28;20043;-80
2022/08/16 08:04:54;;;;;;;6.95;3.13;;;24.70;96.70;;;;;;4952664;28;20043;-80
2022/08/16 08:07:23;;;;;;;7.40;4.00;;;24.70;96.70;;;;;;4960749;28;20043;-80
2022/08/16 08:09:56;;;;;;;6.70;3.88;;;24.80;96.70;;;;;;4963146;28;20054;-78
2022/08/16 08:12:25;;;;;;;6.65;3.70;;;24.80;96.70;;;;;;4958457;28;20517;-78
2022/08/16 08:15:08;;;;;;;8.70;3.50;;;24.90;96.70;;;;;;4950038;28;20519;-77
2022/08/16 08:17:40;;;;;;;6.72;2.83;;;24.90;96.70;;;;;;4961120;28;20047;-78
2022/08/16 08:20:25;;;;;;;4.53;1.83;;;25.00;96.70;;;;;;4964137;28;20834;-80
2022/08/16 08:23:00;;;;;;;5.75;2.53;;;25.00;96.70;;;;;;4944732;28;20138;-79
2022/08/16 08:25:49;;;;;;;7.60;2.65;;;25.10;96.70;;;;;;4949893;28;20047;-80
2022/08/16 08:28:23;;;;;;;6.32;2.55;;;25.20;96.70;;;;;;4961912;28;20150;-81
2022/08/16 08:31:02;;;;;;;5.70;2.03;;;25.30;96.70;;;;;;4957270;28;20062;-78
2022/08/16 08:33:35;;;;;;;6.20;2.85;;;25.40;96.70;;;;;;4956541;28;20146;-78
2022/08/16 08:36:07;;;;;;;5.25;1.92;;;25.50;96.70;;;;;;4944277;28;20138;-80
2022/08/16 08:38:37;;;;;;;5.97;1.77;;;25.50;96.70;;;;;;4956547;28;20124;-80
2022/08/16 08:41:14;;;;;;;6.65;2.03;;;25.60;96.70;;;;;;4963375;28;20803;-77
2022/08/16 08:43:50;;;;;;;6.40;2.17;;;25.70;96.70;;;;;;4963397;28;20050;-77
2022/08/16 08:46:22;;;;;;;5.03;1.98;;;25.80;96.70;;;;;;4958437;28;20457;-79
2022/08/16 08:48:55;;;;;;;6.22;2.13;;;25.90;96.70;;;;;;4960658;28;20050;-79
2022/08/16 08:51:39;;;;;;;6.03;2.25;;;25.90;96.70;;;;;;4958307;28;20069;-79
2022/08/16 08:54:13;;;;;;;4.55;2.00;;;25.90;96.70;;;;;;4959203;28;20572;-80
2022/08/16 08:56:51;;;;;;;5.40;2.00;;;25.90;96.70;;;;;;4943666;28;20047;-81
2022/08/16 08:59:45;;;;;;;3.97;1.88;;;26.00;96.70;;;;;;4955885;28;20054;-83
2022/08/16 09:02:17;;;;;;;4.35;1.85;;;26.10;96.70;;;;;;4966436;28;20046;-77
2022/08/16 09:04:52;;;;;;;5.57;2.60;;;26.10;96.70;;;;;;4962981;28;20042;-77
2022/08/16 09:07:25;;;;;;;6.05;2.60;;;26.10;96.70;;;;;;4959944;28;20051;-77
2022/08/16 09:09:56;;;;;;;5.30;2.40;;;26.20;96.70;;;;;;4956343;28;20122;-77
2022/08/16 09:12:46;;;;;;;4.40;1.98;;;26.40;96.70;;;;;;4951479;28;20145;-77
2022/08/16 09:15:20;;;;;;;4.37;2.37;;;26.50;96.70;;;;;;4965295;28;20623;-78
2022/08/16 09:17:54;;;;;;;4.00;2.28;;;26.70;96.70;;;;;;4949320;28;20154;-79
2022/08/16 09:20:28;;;;;;;4.60;2.10;;;26.60;96.70;;;;;;4945684;28;20043;-79
2022/08/16 09:22:57;;;;;;;7.90;2.58;;;26.70;96.70;;;;;;4963251;28;20047;-77
2022/08/16 09:25:29;;;;;;;5.55;2.15;;;26.90;96.70;;;;;;4959135;28;20090;-75
2022/08/16 09:28:04;;;;;;;4.68;2.20;;;27.00;96.70;;;;;;4956118;28;20051;-76
2022/08/16 09:30:58;;;;;;;6.07;1.90;;;27.10;96.70;;;;;;4961300;28;20043;-76
2022/08/16 09:33:28;;;;;;;5.10;1.77;;;27.00;96.70;;;;;;4960702;28;20472;-77
2022/08/16 09:36:06;;;;;;;2.65;1.83;;;27.20;96.70;;;;;;4958833;28;20087;-77
2022/08/16 09:38:54;;;;;;;4.65;1.80;;;27.40;96.70;;;;;;4942473;28;20527;-76
2022/08/16 09:41:26;;;;;;;6.28;1.92;;;27.50;96.70;;;;;;4964899;28;20089;-76
2022/08/16 09:43:55;;;;;;;5.43;2.78;;;27.60;96.70;;;;;;4961665;28;20109;-77
2022/08/16 09:46:29;;;;;;;4.78;1.65;;;27.60;96.70;;;;;;4954373;28;20063;-76
2022/08/16 09:49:17;;;;;;;4.07;2.05;;;27.60;96.70;;;;;;4961964;28;20039;-77
2022/08/16 09:51:52;;;;;;;3.33;2.13;;;27.80;96.70;;;;;;4959663;28;20097;-77
2022/08/16 09:54:21;;;;;;;7.28;2.47;;;27.80;96.70;;;;;;4947104;28;20509;-77
2022/08/16 09:56:49;;;;;;;4.70;3.80;;;27.90;96.70;;;;;;4955879;28;20038;-77
2022/08/16 09:59:21;;;;;;;9.90;4.13;;;27.90;96.70;;;;;;4956548;28;20562;-77
2022/08/16 10:01:51;;;;;;;4.30;1.80;;;28.00;96.70;;;;;;4947969;28;20699;-77
2022/08/16 10:04:25;;;;;;;5.22;1.98;;;28.20;96.70;;;;;;4962196;28;20129;-77
2022/08/16 10:07:02;;;;;;;4.85;2.40;;;28.20;96.70;;;;;;4959402;28;20064;-77
2022/08/16 10:09:43;;;;;;;4.60;2.28;;;28.20;96.70;;;;;;4961763;28;20145;-77
2022/08/16 10:15:14;;;;;;;9.95;2.38;;;28.20;96.70;;;;;;4963316;28;20054;-77
2022/08/16 10:17:46;;;;;;;4.68;2.20;;;28.40;96.70;;;;;;4934460;28;20059;-76
2022/08/16 10:20:33;;;;;;;3.03;2.10;;;28.60;96.70;;;;;;4957745;28;20137;-75
2022/08/16 10:23:03;;;;;;;3.33;1.75;;;28.50;96.70;;;;;;4960749;28;20553;-75
2022/08/16 10:25:39;;;;;;;5.63;2.25;;;28.50;96.70;;;;;;4960232;28;20129;-75
2022/08/16 10:28:29;;;;;;;4.50;2.00;;;28.80;96.70;;;;;;4943904;28;20054;-76
2022/08/16 10:31:08;;;;;;;5.28;1.90;;;28.80;96.70;;;;;;4943449;28;20532;-76
2022/08/16 10:33:44;;;;;;;3.85;2.08;;;28.80;96.70;;;;;;4960102;28;20035;-75
2022/08/16 10:36:14;;;;;;;3.97;2.00;;;28.70;96.70;;;;;;4957101;28;20134;-75
2022/08/16 10:39:03;;;;;;;7.18;1.95;;;28.90;96.70;;;;;;4939152;28;20045;-80
2022/08/16 10:41:35;;;;;;;6.78;2.00;;;29.00;96.70;;;;;;4956208;28;20440;-78
2022/08/16 10:44:03;;;;;;;6.90;2.15;;;29.30;96.70;;;;;;4957426;28;20043;-79
2022/08/16 10:46:36;;;;;;;3.78;2.30;;;29.50;96.70;;;;;;4945498;28;20099;-78
2022/08/16 10:49:10;;;;;;;7.18;2.10;;;29.70;96.70;;;;;;4967992;28;20423;-77
2022/08/16 10:51:40;;;;;;;4.28;2.05;;;29.70;96.70;;;;;;4954573;28;20047;-76
2022/08/16 10:54:28;;;;;;;2.38;1.83;;;29.90;96.70;;;;;;4958032;28;20050;-75
2022/08/16 10:56:58;;;;;;;6.10;2.60;;;30.10;96.70;;;;;;4957864;28;20038;-76
2022/08/16 10:59:30;;;;;;;5.25;2.13;;;30.30;96.70;;;;;;4962801;28;20055;-76
2022/08/16 11:02:13;;;;;;;3.50;1.83;;;30.40;96.70;;;;;;4959230;28;20658;-76
2022/08/16 11:05:01;;;;;;;2.95;1.92;;;30.40;96.70;;;;;;4962542;28;20461;-78
2022/08/16 11:07:36;;;;;;;25.05;3.55;;;30.30;96.70;;;;;;4949877;28;20090;-76
2022/08/16 11:10:25;;;;;;;6.97;2.38;;;30.40;96.70;;;;;;4948766;28;20416;-77
2022/08/16 11:13:16;;;;;;;5.40;2.60;;;30.50;96.70;;;;;;4962643;28;20046;-77
2022/08/16 11:16:06;;;;;;;5.10;2.50;;;30.60;96.70;;;;;;4964283;28;20050;-78
2022/08/16 11:18:55;;;;;;;4.13;2.00;;;30.60;96.70;;;;;;4951703;28;20082;-76
2022/08/16 11:21:39;;;;;;;5.22;2.13;;;30.60;96.70;;;;;;4963675;28;20043;-78
2022/08/16 11:24:29;;;;;;;5.90;2.40;;;30.80;96.70;;;;;;4959166;28;20042;-78
2022/08/16 11:27:11;;;;;;;3.65;2.05;;;30.80;96.70;;;;;;4962884;28;20053;-79
2022/08/16 11:29:51;;;;;;;6.22;2.35;;;30.60;96.70;;;;;;4964527;28;20555;-76
2022/08/16 11:32:20;;;;;;;4.60;2.42;;;30.70;96.70;;;;;;4962296;28;20078;-76
2022/08/16 11:34:59;;;;;;;4.10;2.33;;;31.00;96.70;;;;;;4958988;28;20067;-77
2022/08/16 11:37:39;;;;;;;7.35;3.00;;;31.30;96.70;;;;;;4946142;28;20051;-77
2022/08/16 11:40:32;;;;;;;7.88;2.95;;;31.10;96.70;;;;;;4973878;28;21016;-76
2022/08/16 11:43:03;;;;;;;32.97;5.57;;;31.00;96.70;;;;;;4963924;28;20047;-77
2022/08/16 11:45:32;;;;;;;27.23;4.93;;;31.00;96.70;;;;;;4965899;28;20051;-77
2022/08/16 11:48:02;;;;;;;13.82;6.28;;;31.10;96.70;;;;;;4958952;28;20129;-79
2022/08/16 11:50:32;;;;;;;5.05;2.47;;;31.30;96.70;;;;;;4960766;28;20048;-78
2022/08/16 11:53:01;;;;;;;5.95;2.45;;;31.50;96.70;;;;;;4956817;28;20051;-79
2022/08/16 11:55:33;;;;;;;8.73;2.90;;;31.80;96.70;;;;;;4958407;28;20134;-79
2022/08/16 11:58:06;;;;;;;9.82;2.70;;;31.90;96.70;;;;;;4966258;28;20738;-81
2022/08/16 12:00:39;;;;;;;3.30;2.25;;;32.00;96.70;;;;;;4961380;28;20054;-80
2022/08/16 12:03:19;;;;;;;7.47;2.90;;;32.20;96.70;;;;;;4961891;28;20043;-80
2022/08/16 12:06:09;;;;;;;5.72;2.15;;;32.40;96.70;;;;;;4962048;28;20038;-80
2022/08/16 12:08:59;;;;;;;7.57;2.33;;;32.30;96.70;;;;;;4960480;28;20051;-81
2022/08/16 12:11:31;;;;;;;5.88;2.78;;;32.30;96.70;;;;;;4964088;28;20117;-78
2022/08/16 12:14:00;;;;;;;5.88;2.63;;;32.30;96.70;;;;;;4959159;28;20175;-80
2022/08/16 12:16:32;;;;;;;4.82;2.17;;;32.40;96.70;;;;;;4952382;28;20051;-81
2022/08/16 12:19:03;;;;;;;4.97;2.83;;;32.50;96.70;;;;;;4943887;28;20102;-80
2022/08/16 12:21:32;;;;;;;4.15;2.50;;;32.40;96.70;;;;;;4957966;28;20539;-79
2022/08/16 12:24:21;;;;;;;6.30;2.60;;;32.50;96.70;;;;;;4947420;28;20043;-80
2022/08/16 12:26:52;;;;;;;6.35;2.85;;;32.50;96.70;;;;;;4960938;28;20516;-79
2022/08/16 12:29:20;;;;;;;7.00;2.58;;;32.80;96.70;;;;;;4959282;28;20050;-80
2022/08/16 12:31:50;;;;;;;7.43;2.50;;;32.70;96.70;;;;;;4957530;28;20299;-81
2022/08/16 12:34:29;;;;;;;4.90;2.38;;;32.80;96.70;;;;;;4959493;28;20034;-81
2022/08/16 12:37:01;;;;;;;5.88;2.55;;;33.10;96.70;;;;;;4961269;28;20243;-78
2022/08/16 12:39:30;;;;;;;4.85;2.60;;;33.20;96.70;;;;;;4959861;28;20051;-77
2022/08/16 12:42:00;;;;;;;8.13;3.05;;;33.20;96.70;;;;;;4961788;28;20042;-77
2022/08/16 12:44:28;;;;;;;9.77;3.00;;;33.40;96.70;;;;;;4961096;28;20142;-78
2022/08/16 12:49:45;;;;;;;6.03;2.92;;;33.40;96.70;;;;;;4978502;28;20082;-77
2022/08/16 12:52:13;;;;;;;4.10;2.03;;;33.40;96.70;;;;;;4959663;28;20045;-80
2022/08/16 12:55:02;;;;;;;6.78;2.90;;;33.40;96.70;;;;;;4956502;28;20047;-78
2022/08/16 12:57:31;;;;;;;5.82;2.60;;;33.60;96.70;;;;;;4959393;28;20932;-80
2022/08/16 13:00:06;;;;;;;7.10;3.35;;;33.80;96.70;;;;;;4962337;28;20047;-77
2022/08/16 13:02:34;;;;;;;5.80;3.05;;;33.80;96.70;;;;;;4963971;28;20121;-78
2022/08/16 13:05:10;;;;;;;7.75;2.60;;;33.90;96.70;;;;;;4953867;28;20582;-78
2022/08/16 13:07:39;;;;;;;5.97;2.55;;;33.90;96.70;;;;;;4961561;28;20501;-77
2022/08/16 13:10:14;;;;;;;9.55;3.25;;;34.00;96.70;;;;;;4958128;28;20047;-77
2022/08/16 13:13:05;;;;;;;6.68;2.83;;;34.20;96.70;;;;;;4959788;28;20121;-78
2022/08/16 13:15:36;;;;;;;9.95;2.78;;;34.30;96.70;;;;;;4958185;28;20047;-80
2022/08/16 13:18:30;;;;;;;5.40;2.90;;;34.30;96.70;;;;;;4947939;28;20058;-78
2022/08/16 13:21:02;;;;;;;6.78;3.05;;;34.30;96.70;;;;;;4962461;28;20141;-79
2022/08/16 13:23:31;;;;;;;7.20;2.90;;;34.40;96.70;;;;;;4963418;28;20540;-78
2022/08/16 13:25:59;;;;;;;8.13;3.33;;;34.50;96.70;;;;;;4961018;28;20896;-77
2022/08/16 13:28:29;;;;;;;7.80;2.80;;;34.50;96.70;;;;;;4958671;28;20042;-78
2022/08/16 13:30:59;;;;;;;6.72;3.17;;;34.70;96.70;;;;;;4954391;28;20047;-79
2022/08/16 13:33:35;;;;;;;7.32;3.63;;;34.70;96.70;;;;;;4949350;28;20485;-77
2022/08/16 13:36:07;;;;;;;6.53;3.08;;;34.90;96.70;;;;;;4957388;28;20101;-81
2022/08/16 13:38:52;;;;;;;7.88;3.00;;;35.10;96.70;;;;;;4959006;28;20043;-78
2022/08/16 13:41:21;;;;;;;5.47;2.55;;;35.50;96.70;;;;;;4960489;28;20474;-80
2022/08/16 13:43:51;;;;;;;4.85;2.38;;;35.70;96.70;;;;;;4962031;28;20415;-79